createdAt,value
2023-02-12T00:02:26.545Z,9.52
2023-02-12T00:04:53.757Z,10.65
2023-02-12T00:07:20.548Z,10.00
2023-02-12T00:09:47.647Z,9.25
2023-02-12T00:12:14.422Z,9.07
2023-02-12T00:14:41.507Z,9.38
2023-02-12T00:17:08.279Z,8.90
2023-02-12T00:19:35.501Z,9.15
2023-02-12T00:22:02.366Z,8.55
2023-02-12T00:24:29.442Z,9.75
2023-02-12T00:26:56.167Z,8.23
2023-02-12T00:29:23.233Z,9.48
2023-02-12T00:31:50.015Z,9.40
2023-02-12T00:34:17.094Z,9.02
2023-02-12T00:36:44.083Z,8.68
2023-02-12T00:39:11.547Z,9.02
2023-02-12T00:41:38.311Z,8.88
2023-02-12T00:44:05.392Z,8.98
2023-02-12T00:46:32.202Z,8.70
2023-02-12T00:48:59.378Z,8.43
2023-02-12T00:51:26.275Z,8.82
2023-02-12T00:53:53.379Z,8.13
2023-02-12T00:56:20.105Z,8.00
2023-02-12T00:58:47.140Z,9.13
2023-02-12T01:01:13.958Z,7.93
2023-02-12T01:03:41.083Z,8.10
2023-02-12T01:06:08.039Z,8.57
2023-02-12T01:08:35.248Z,7.70
2023-02-12T01:11:03.178Z,8.93
2023-02-12T01:13:30.914Z,7.97
2023-02-12T01:16:14.930Z,8.90
2023-02-12T01:18:42.043Z,8.60
2023-02-12T01:21:16.645Z,8.68
2023-02-12T01:23:43.970Z,7.82
2023-02-12T01:26:11.663Z,8.23
2023-02-12T01:28:39.515Z,8.23
2023-02-12T01:31:14.427Z,7.88
2023-02-12T01:33:41.600Z,8.30
2023-02-12T01:36:09.100Z,7.60
2023-02-12T01:38:36.133Z,8.50
2023-02-12T01:41:14.238Z,8.23
2023-02-12T01:43:41.573Z,7.68
2023-02-12T01:46:08.902Z,7.47
2023-02-12T01:48:38.134Z,8.35
2023-02-12T01:51:04.994Z,8.70
2023-02-12T01:53:35.654Z,9.88
2023-02-12T01:56:02.636Z,9.30
2023-02-12T01:58:36.345Z,9.50
2023-02-12T02:01:04.616Z,9.27
2023-02-12T02:03:32.084Z,9.27
2023-02-12T02:06:05.227Z,8.38
2023-02-12T02:08:32.877Z,9.07
2023-02-12T02:10:59.631Z,9.40
2023-02-12T02:13:45.297Z,9.40
2023-02-12T02:16:20.684Z,9.07
2023-02-12T02:18:56.700Z,8.93
2023-02-12T02:21:26.403Z,9.63
2023-02-12T02:24:11.838Z,9.38
2023-02-12T02:26:54.600Z,8.80
2023-02-12T02:29:59.208Z,9.60
2023-02-12T02:32:30.829Z,9.00
2023-02-12T02:35:05.468Z,9.10
2023-02-12T02:37:36.103Z,9.15
2023-02-12T02:40:28.089Z,9.20
2023-02-12T02:43:15.621Z,8.68
2023-02-12T02:45:48.504Z,9.02
2023-02-12T02:48:29.037Z,8.90
2023-02-12T02:50:58.032Z,9.20
2023-02-12T02:53:31.289Z,9.38
2023-02-12T02:55:59.604Z,9.30
2023-02-12T02:58:45.142Z,9.80
2023-02-12T03:01:26.795Z,9.77
2023-02-12T03:04:04.393Z,9.27
2023-02-12T03:06:38.875Z,9.85
2023-02-12T03:09:22.513Z,9.77
2023-02-12T03:11:53.477Z,9.85
2023-02-12T03:14:31.520Z,10.93
2023-02-12T03:16:59.559Z,10.32
2023-02-12T03:19:29.492Z,10.15
2023-02-12T03:22:05.011Z,9.90
2023-02-12T03:24:40.797Z,10.05
2023-02-12T03:27:18.229Z,10.05
2023-02-12T03:29:45.092Z,11.55
2023-02-12T03:32:36.772Z,10.32
2023-02-12T03:35:12.369Z,11.90
2023-02-12T03:37:42.449Z,10.40
2023-02-12T03:40:42.910Z,11.38
2023-02-12T03:43:16.569Z,10.40
2023-02-12T03:45:55.662Z,11.15
2023-02-12T03:48:27.157Z,10.88
2023-02-12T03:50:57.113Z,10.57
2023-02-12T03:53:26.181Z,11.43
2023-02-12T03:55:55.069Z,11.57
2023-02-12T03:58:23.919Z,11.05
2023-02-12T04:00:50.962Z,12.52
2023-02-12T04:03:17.987Z,11.50
2023-02-12T04:05:44.730Z,12.18
2023-02-12T04:08:12.349Z,13.25
2023-02-12T04:10:42.439Z,12.13
2023-02-12T04:13:26.477Z,12.75
2023-02-12T04:16:07.909Z,13.10
2023-02-12T04:18:43.201Z,13.52
2023-02-12T04:21:16.684Z,13.27
2023-02-12T04:24:02.104Z,12.68
2023-02-12T04:26:39.772Z,14.43
2023-02-12T04:29:18.975Z,13.90
2023-02-12T04:31:45.824Z,12.27
2023-02-12T04:34:18.335Z,13.00
2023-02-12T04:37:05.339Z,12.88
2023-02-12T04:39:33.776Z,13.48
2023-02-12T04:42:01.101Z,13.40
2023-02-12T04:44:31.370Z,13.52
2023-02-12T04:46:58.226Z,13.45
2023-02-12T04:49:25.463Z,13.23
2023-02-12T04:51:52.268Z,14.05
2023-02-12T04:54:20.150Z,13.90
2023-02-12T04:56:46.991Z,13.43
2023-02-12T04:59:14.248Z,13.63
2023-02-12T05:01:41.242Z,12.35
2023-02-12T05:04:08.551Z,12.27
2023-02-12T05:06:36.095Z,12.63
2023-02-12T05:09:04.066Z,11.82
2023-02-12T05:11:30.891Z,12.07
2023-02-12T05:13:58.170Z,12.70
2023-02-12T05:16:25.028Z,12.73
2023-02-12T05:18:52.119Z,11.73
2023-02-12T05:21:18.955Z,10.95
2023-02-12T05:23:46.122Z,11.60
2023-02-12T05:26:14.419Z,11.07
2023-02-12T05:28:41.596Z,11.45
2023-02-12T05:31:09.629Z,11.43
2023-02-12T05:33:36.759Z,12.00
2023-02-12T05:36:10.895Z,10.23
2023-02-12T05:38:37.908Z,11.33
2023-02-12T05:41:06.084Z,9.98
2023-02-12T05:43:33.219Z,12.02
2023-02-12T05:46:00.891Z,9.80
2023-02-12T05:48:28.314Z,10.40
2023-02-12T05:50:55.329Z,11.68
2023-02-12T05:53:22.380Z,10.32
2023-02-12T05:55:49.131Z,10.05
2023-02-12T05:58:16.279Z,10.27
2023-02-12T06:00:43.096Z,10.77
2023-02-12T06:03:10.177Z,10.50
2023-02-12T06:05:36.916Z,10.15
2023-02-12T06:08:04.135Z,11.05
2023-02-12T06:10:30.883Z,9.85
2023-02-12T06:12:57.946Z,10.30
2023-02-12T06:15:24.700Z,10.35
2023-02-12T06:17:51.732Z,9.88
2023-02-12T06:20:18.512Z,9.43
2023-02-12T06:22:45.548Z,9.68
2023-02-12T06:25:12.381Z,9.55
2023-02-12T06:27:39.455Z,9.57
2023-02-12T06:30:06.835Z,9.90
2023-02-12T06:32:33.882Z,10.10
2023-02-12T06:35:00.651Z,9.35
2023-02-12T06:37:27.732Z,9.05
2023-02-12T06:39:54.457Z,9.48
2023-02-12T06:42:21.524Z,9.02
2023-02-12T06:44:48.675Z,9.10
2023-02-12T06:47:16.913Z,9.23
2023-02-12T06:49:43.988Z,9.20
2023-02-12T06:52:11.044Z,9.23
2023-02-12T06:54:37.789Z,8.35
2023-02-12T06:57:04.854Z,8.82
2023-02-12T06:59:31.757Z,9.30
2023-02-12T07:01:58.808Z,8.35
2023-02-12T07:04:25.580Z,8.65
2023-02-12T07:06:52.692Z,7.93
2023-02-12T07:09:19.492Z,8.00
2023-02-12T07:11:46.548Z,7.70
2023-02-12T07:14:15.471Z,8.07
2023-02-12T07:16:42.796Z,8.50
2023-02-12T07:19:12.195Z,8.15
2023-02-12T07:21:39.250Z,8.50
2023-02-12T07:24:06.260Z,8.13
2023-02-12T07:26:33.348Z,7.78
2023-02-12T07:29:00.194Z,8.43
2023-02-12T07:31:27.412Z,8.18
2023-02-12T07:33:55.437Z,7.53
2023-02-12T07:36:22.783Z,8.45
2023-02-12T07:38:49.595Z,8.88
2023-02-12T07:41:27.464Z,8.27
2023-02-12T07:43:58.732Z,9.73
2023-02-12T07:46:29.970Z,9.18
2023-02-12T07:48:58.045Z,9.32
2023-02-12T07:51:25.242Z,9.27
2023-02-12T07:53:52.107Z,11.00
2023-02-12T07:56:21.480Z,11.05
2023-02-12T07:58:49.384Z,10.32
2023-02-12T08:01:19.512Z,10.98
2023-02-12T08:03:46.617Z,10.63
2023-02-12T08:06:19.090Z,10.25
2023-02-12T08:08:46.781Z,10.43
2023-02-12T08:11:14.475Z,10.25
2023-02-12T08:13:41.390Z,10.48
2023-02-12T08:16:10.628Z,10.55
2023-02-12T08:18:37.409Z,10.40
2023-02-12T08:21:09.219Z,11.00
2023-02-12T08:23:36.055Z,11.60
2023-02-12T08:26:20.193Z,10.50
2023-02-12T08:28:48.790Z,10.10
2023-02-12T08:31:18.362Z,11.18
2023-02-12T08:33:45.642Z,10.48
2023-02-12T08:36:14.682Z,10.27
2023-02-12T08:38:42.136Z,9.57
2023-02-12T08:41:11.082Z,10.60
2023-02-12T08:43:38.334Z,9.57
2023-02-12T08:46:11.030Z,9.93
2023-02-12T08:48:38.011Z,10.68
2023-02-12T08:51:06.884Z,10.52
2023-02-12T08:53:33.680Z,10.32
2023-02-12T08:56:00.836Z,9.00
2023-02-12T08:58:27.609Z,8.45
2023-02-12T09:00:54.731Z,8.15
2023-02-12T09:03:21.566Z,9.63
2023-02-12T09:05:48.690Z,8.82
2023-02-12T09:08:15.549Z,9.07
2023-02-12T09:10:42.934Z,9.55
2023-02-12T09:13:10.468Z,9.13
2023-02-12T09:15:44.534Z,9.23
2023-02-12T09:18:12.422Z,8.95
2023-02-12T09:20:40.912Z,9.63
2023-02-12T09:23:08.593Z,8.68
2023-02-12T09:25:35.718Z,9.82
2023-02-12T09:28:02.624Z,9.15
2023-02-12T09:30:29.829Z,8.77
2023-02-12T09:32:56.906Z,8.55
2023-02-12T09:35:24.478Z,9.15
2023-02-12T09:37:52.749Z,8.45
2023-02-12T09:40:51.017Z,9.68
2023-02-12T09:43:35.957Z,8.10
2023-02-12T09:46:07.320Z,8.43
2023-02-12T09:48:40.438Z,8.35
2023-02-12T09:51:07.871Z,8.30
2023-02-12T09:53:36.722Z,7.65
2023-02-12T09:56:09.915Z,8.23
2023-02-12T09:58:41.901Z,8.18
2023-02-12T10:01:17.121Z,8.35
2023-02-12T10:03:44.688Z,7.90
2023-02-12T10:06:15.213Z,7.63
2023-02-12T10:08:52.462Z,8.30
2023-02-12T10:11:54.065Z,7.60
2023-02-12T10:14:23.553Z,7.88
2023-02-12T10:16:59.758Z,8.10
2023-02-12T10:19:49.568Z,8.23
2023-02-12T10:22:22.587Z,9.00
2023-02-12T10:24:56.720Z,8.20
2023-02-12T10:27:41.076Z,8.63
2023-02-12T10:30:33.804Z,9.15
2023-02-12T10:33:04.053Z,8.52
2023-02-12T10:35:30.842Z,9.10
2023-02-12T10:38:00.828Z,8.45
2023-02-12T10:40:30.069Z,8.13
2023-02-12T10:43:00.439Z,7.85
2023-02-12T10:45:31.285Z,9.27
2023-02-12T10:48:04.754Z,8.93
2023-02-12T10:50:43.898Z,8.93
2023-02-12T10:53:26.861Z,8.70
2023-02-12T10:56:12.146Z,8.65
2023-02-12T10:58:40.430Z,8.40
2023-02-12T11:01:32.114Z,9.27
2023-02-12T11:04:00.720Z,9.25
2023-02-12T11:06:29.191Z,9.15
2023-02-12T11:08:56.865Z,9.95
2023-02-12T11:11:28.568Z,9.30
2023-02-12T11:14:02.754Z,9.45
2023-02-12T11:16:31.867Z,9.50
2023-02-12T11:19:07.065Z,8.85
2023-02-12T11:21:34.667Z,8.93
2023-02-12T11:24:21.289Z,8.85
2023-02-12T11:26:48.052Z,8.80
2023-02-12T11:29:24.503Z,9.60
2023-02-12T11:32:02.254Z,9.35
2023-02-12T11:34:29.965Z,8.73
2023-02-12T11:36:56.789Z,9.35
2023-02-12T11:39:27.911Z,9.18
2023-02-12T11:42:14.863Z,8.77
2023-02-12T11:44:43.762Z,8.82
2023-02-12T11:47:17.745Z,9.57
2023-02-12T11:49:49.504Z,8.93
2023-02-12T11:52:32.693Z,9.15
2023-02-12T11:55:01.480Z,8.68
2023-02-12T11:58:04.683Z,8.20
2023-02-12T12:00:39.601Z,9.38
2023-02-12T12:03:19.486Z,8.52
2023-02-12T12:05:57.675Z,8.82
2023-02-12T12:08:46.672Z,9.10
2023-02-12T12:11:20.126Z,8.77
2023-02-12T12:13:59.358Z,9.30
2023-02-12T12:17:06.430Z,9.35
2023-02-12T12:19:56.082Z,9.32
2023-02-12T12:22:41.893Z,9.88
2023-02-12T12:25:27.436Z,8.77
2023-02-12T12:28:03.590Z,9.40
2023-02-12T12:30:48.980Z,9.63
2023-02-12T12:33:23.220Z,9.50
2023-02-12T12:35:56.280Z,9.95
2023-02-12T12:38:30.563Z,10.68
2023-02-12T12:41:20.819Z,11.10
2023-02-12T12:44:10.418Z,11.63
2023-02-12T12:46:40.159Z,11.13
2023-02-12T12:49:12.474Z,11.98
2023-02-12T12:52:01.043Z,11.60
2023-02-12T12:54:44.879Z,11.27
2023-02-12T12:57:21.059Z,11.45
2023-02-12T13:00:00.817Z,11.38
2023-02-12T13:02:48.938Z,11.98
2023-02-12T13:05:55.223Z,11.25
2023-02-12T13:08:35.252Z,11.45
2023-02-12T13:11:17.616Z,11.90
2023-02-12T13:13:46.311Z,12.70
2023-02-12T13:16:22.522Z,12.23
2023-02-12T13:18:55.346Z,12.02
2023-02-12T13:21:47.820Z,11.82
2023-02-12T13:24:18.760Z,12.27
2023-02-12T13:26:48.539Z,12.32
2023-02-12T13:29:28.078Z,13.23
2023-02-12T13:32:03.847Z,12.70
2023-02-12T13:34:30.871Z,12.38
2023-02-12T13:37:00.383Z,13.05
2023-02-12T13:39:39.202Z,12.23
2023-02-12T13:42:43.193Z,12.70
2023-02-12T13:45:30.776Z,13.80
2023-02-12T13:48:00.923Z,12.40
2023-02-12T13:50:34.555Z,13.07
2023-02-12T13:53:12.476Z,13.32
2023-02-12T13:55:50.767Z,13.02
2023-02-12T13:58:39.365Z,13.73
2023-02-12T14:01:08.755Z,13.48
2023-02-12T14:03:36.555Z,12.65
2023-02-12T14:06:17.891Z,12.65
2023-02-12T14:08:52.695Z,12.88
2023-02-12T14:11:23.746Z,14.98
2023-02-12T14:14:04.957Z,15.40
2023-02-12T14:16:31.713Z,14.63
2023-02-12T14:19:36.332Z,14.70
2023-02-12T14:22:32.734Z,15.38
2023-02-12T14:25:25.294Z,13.88
2023-02-12T14:27:57.273Z,16.05
2023-02-12T14:30:31.749Z,15.02
2023-02-12T14:33:08.502Z,15.35
2023-02-12T14:35:37.247Z,14.30
2023-02-12T14:38:10.293Z,15.30
2023-02-12T14:40:42.281Z,15.80
2023-02-12T14:43:55.190Z,14.93
2023-02-12T14:46:22.446Z,15.30
2023-02-12T14:48:53.471Z,14.85
2023-02-12T14:51:36.192Z,16.35
2023-02-12T14:54:04.342Z,15.27
2023-02-12T14:56:31.718Z,16.73
2023-02-12T14:58:58.493Z,15.10
2023-02-12T15:01:29.543Z,16.95
2023-02-12T15:03:56.383Z,16.55
2023-02-12T15:06:27.695Z,15.07
2023-02-12T15:08:57.819Z,15.45
2023-02-12T15:11:29.588Z,16.90
2023-02-12T15:14:15.192Z,16.23
2023-02-12T15:16:54.393Z,15.52
2023-02-12T15:19:31.510Z,16.58
2023-02-12T15:21:58.559Z,18.48
2023-02-12T15:24:25.867Z,17.23
2023-02-12T15:26:58.298Z,19.05
2023-02-12T15:29:29.185Z,18.15
2023-02-12T15:32:06.753Z,18.10
2023-02-12T15:34:35.550Z,18.77
2023-02-12T15:37:03.001Z,19.70
2023-02-12T15:39:43.724Z,19.67
2023-02-12T15:42:30.289Z,20.30
2023-02-12T15:45:15.299Z,20.33
2023-02-12T15:47:43.252Z,21.52
2023-02-12T15:50:14.097Z,22.33
2023-02-12T15:52:42.382Z,20.60
2023-02-12T15:55:20.793Z,22.63
2023-02-12T15:57:58.630Z,20.10
2023-02-12T16:00:31.581Z,20.48
2023-02-12T16:02:58.967Z,21.20
2023-02-12T16:05:25.978Z,20.17
2023-02-12T16:07:53.431Z,20.33
2023-02-12T16:10:20.617Z,20.13
2023-02-12T16:12:48.398Z,21.27
2023-02-12T16:15:30.884Z,20.77
2023-02-12T16:17:59.750Z,21.98
2023-02-12T16:20:28.359Z,22.35
2023-02-12T16:22:55.851Z,21.15
2023-02-12T16:25:28.353Z,21.80
2023-02-12T16:28:03.005Z,21.23
2023-02-12T16:30:32.672Z,20.40
2023-02-12T16:33:00.762Z,23.73
2023-02-12T16:35:35.548Z,24.20
2023-02-12T16:38:27.647Z,26.83
2023-02-12T16:41:25.509Z,28.08
2023-02-12T16:44:02.049Z,29.08
2023-02-12T16:46:29.984Z,29.13
2023-02-12T16:48:58.189Z,31.70
2023-02-12T16:51:31.031Z,30.08
2023-02-12T16:54:02.336Z,30.25
2023-02-12T16:56:32.669Z,31.63
2023-02-12T16:59:00.502Z,31.75
2023-02-12T17:01:28.020Z,33.58
2023-02-12T17:03:55.322Z,33.22
2023-02-12T17:06:23.626Z,34.75
2023-02-12T17:08:50.930Z,36.72
2023-02-12T17:11:18.107Z,37.30
2023-02-12T17:13:46.101Z,34.90
2023-02-12T17:16:21.627Z,38.17
2023-02-12T17:18:55.771Z,37.28
2023-02-12T17:21:38.155Z,36.63
2023-02-12T17:24:15.205Z,36.15
2023-02-12T17:26:41.959Z,37.53
2023-02-12T17:29:09.066Z,37.35
2023-02-12T17:31:36.827Z,40.05
2023-02-12T17:34:04.760Z,40.10
2023-02-12T17:36:31.692Z,42.63
2023-02-12T17:38:59.175Z,43.10
2023-02-12T17:41:25.937Z,42.22
2023-02-12T17:43:53.106Z,44.58
2023-02-12T17:46:21.844Z,49.72
2023-02-12T17:48:48.944Z,53.10
2023-02-12T17:51:16.165Z,52.95
2023-02-12T17:53:43.444Z,54.45
2023-02-12T17:56:18.235Z,55.22
2023-02-12T17:58:45.701Z,56.83
2023-02-12T18:01:14.260Z,56.22
2023-02-12T18:03:41.576Z,59.50
2023-02-12T18:06:09.016Z,58.10
2023-02-12T18:08:36.185Z,60.72
2023-02-12T18:11:06.926Z,58.22
2023-02-12T18:13:34.066Z,59.17
2023-02-12T18:16:01.431Z,60.42
2023-02-12T18:18:28.542Z,62.85
2023-02-12T18:20:55.718Z,61.67
2023-02-12T18:23:23.063Z,62.83
2023-02-12T18:25:49.866Z,62.20
2023-02-12T18:28:17.202Z,62.20
2023-02-12T18:30:44.231Z,66.00
2023-02-12T18:33:12.066Z,64.30
2023-02-12T18:35:41.712Z,62.33
2023-02-12T18:38:08.826Z,63.78
2023-02-12T18:40:35.690Z,62.60
2023-02-12T18:43:02.807Z,63.63
2023-02-12T18:45:29.561Z,64.10
2023-02-12T18:47:56.675Z,67.30
2023-02-12T18:50:23.490Z,65.38
2023-02-12T18:52:50.571Z,65.75
2023-02-12T18:55:17.475Z,68.20
2023-02-12T18:57:44.589Z,66.25
2023-02-12T19:00:11.823Z,63.83
2023-02-12T19:02:39.071Z,65.18
2023-02-12T19:05:06.117Z,66.97
2023-02-12T19:07:33.333Z,65.55
2023-02-12T19:10:00.118Z,64.70
2023-02-12T19:12:27.415Z,67.60
2023-02-12T19:14:54.213Z,67.07
2023-02-12T19:17:21.291Z,68.22
2023-02-12T19:19:51.277Z,68.70
2023-02-12T19:22:18.789Z,67.63
2023-02-12T19:24:47.210Z,70.80
2023-02-12T19:27:14.488Z,68.63
2023-02-12T19:29:41.320Z,69.88
2023-02-12T19:32:08.624Z,73.15
2023-02-12T19:34:35.603Z,71.85
2023-02-12T19:37:02.809Z,72.93
2023-02-12T19:39:29.666Z,73.45
2023-02-12T19:41:56.851Z,73.68
2023-02-12T19:44:24.436Z,74.10
2023-02-12T19:46:52.926Z,71.72
2023-02-12T19:49:24.860Z,76.97
2023-02-12T19:51:52.308Z,78.45
2023-02-12T19:54:19.783Z,75.60
2023-02-12T19:56:46.962Z,78.15
2023-02-12T19:59:17.168Z,77.80
2023-02-12T20:01:44.934Z,76.15
2023-02-12T20:04:16.682Z,79.15
2023-02-12T20:06:51.252Z,80.50
2023-02-12T20:09:19.309Z,83.88
2023-02-12T20:11:47.975Z,86.50
2023-02-12T20:14:15.163Z,83.18
2023-02-12T20:16:46.650Z,88.47
2023-02-12T20:19:20.151Z,89.25
2023-02-12T20:21:53.238Z,91.88
2023-02-12T20:24:24.128Z,92.88
2023-02-12T20:26:51.451Z,94.03
2023-02-12T20:29:18.595Z,92.63
2023-02-12T20:31:46.052Z,96.05
2023-02-12T20:34:14.433Z,95.88
2023-02-12T20:36:42.488Z,96.90
2023-02-12T20:39:10.804Z,92.65
2023-02-12T20:41:37.979Z,97.90
2023-02-12T20:44:05.952Z,99.63
2023-02-12T20:46:36.152Z,99.72
2023-02-12T20:49:03.422Z,102.10
2023-02-12T20:51:31.216Z,101.05
2023-02-12T20:54:00.213Z,99.93
2023-02-12T20:56:29.900Z,98.13
2023-02-12T20:58:56.764Z,99.65
2023-02-12T21:01:25.854Z,98.40
2023-02-12T21:03:54.343Z,97.35
2023-02-12T21:06:22.124Z,96.93
2023-02-12T21:08:49.495Z,98.75
2023-02-12T21:11:21.828Z,99.25
2023-02-12T21:14:02.283Z,98.65
2023-02-12T21:16:31.794Z,98.13
2023-02-12T21:18:58.717Z,102.72
2023-02-12T21:21:27.638Z,101.65
2023-02-12T21:23:56.879Z,100.95
2023-02-12T21:26:25.602Z,97.50
2023-02-12T21:28:52.716Z,100.45
2023-02-12T21:31:37.286Z,97.20
2023-02-12T21:34:04.989Z,100.88
2023-02-12T21:36:34.569Z,97.55
2023-02-12T21:39:01.456Z,99.70
2023-02-12T21:41:34.495Z,99.63
2023-02-12T21:44:06.305Z,96.07
2023-02-12T21:46:34.718Z,102.60
2023-02-12T21:49:01.603Z,98.20
2023-02-12T21:51:34.106Z,99.43
2023-02-12T21:54:02.892Z,92.93
2023-02-12T21:56:30.130Z,100.85
2023-02-12T21:58:58.189Z,97.43
2023-02-12T22:01:29.850Z,100.32
2023-02-12T22:03:56.684Z,103.05
2023-02-12T22:06:24.730Z,99.22
2023-02-12T22:08:55.522Z,103.50
2023-02-12T22:11:23.014Z,98.88
2023-02-12T22:13:49.845Z,105.53
2023-02-12T22:16:23.555Z,102.35
2023-02-12T22:18:55.029Z,104.93
2023-02-12T22:21:23.728Z,104.25
2023-02-12T22:23:50.652Z,105.95
2023-02-12T22:26:22.892Z,98.97
2023-02-12T22:28:57.521Z,104.38
2023-02-12T22:31:29.458Z,102.00
2023-02-12T22:34:00.953Z,104.40
2023-02-12T22:36:28.317Z,102.80
2023-02-12T22:38:56.138Z,99.75
2023-02-12T22:41:23.278Z,102.38
2023-02-12T22:43:50.207Z,102.60
2023-02-12T22:46:17.487Z,104.00
2023-02-12T22:48:44.375Z,99.88
2023-02-12T22:51:24.944Z,96.32
2023-02-12T22:53:51.752Z,99.38
2023-02-12T22:56:18.975Z,97.60
2023-02-12T22:58:46.026Z,100.38
2023-02-12T23:01:14.833Z,93.97
2023-02-12T23:03:41.849Z,95.72
2023-02-12T23:06:11.626Z,93.78
2023-02-12T23:08:38.448Z,97.20
2023-02-12T23:11:07.114Z,91.15
2023-02-12T23:13:35.746Z,92.70
2023-02-12T23:16:03.035Z,93.10
2023-02-12T23:18:30.345Z,88.55
2023-02-12T23:20:57.938Z,86.97
2023-02-12T23:23:24.908Z,89.40
2023-02-12T23:25:53.943Z,86.60
2023-02-12T23:28:21.185Z,85.78
2023-02-12T23:30:49.138Z,83.88
2023-02-12T23:33:16.075Z,88.47
2023-02-12T23:35:44.135Z,85.00
2023-02-12T23:38:10.894Z,85.15
2023-02-12T23:40:38.074Z,81.00
2023-02-12T23:43:04.986Z,79.97
2023-02-12T23:45:32.129Z,83.82
2023-02-12T23:47:59.003Z,84.22
2023-02-12T23:50:26.106Z,77.72
2023-02-12T23:52:52.873Z,82.10
2023-02-12T23:55:20.342Z,77.15
2023-02-12T23:57:47.606Z,79.07
